Time;durP1;ratioP1;P1;durP2;ratioP2;P2;SDS_P1;SDS_P2;PMS_P1;PMS_P2;Temp;Humidity;BMP_temperature;BMP_pressure;BME280_temperature;BME280_humidity;BME280_pressure;Samples;Min_cycle;Max_cycle;Signal;HPM_P1;HPM_P2
2024/03/11 00:01:12;;;;;;;14.30;11.23;;;12.50;86.90;;;;;;4997624;28;20026;-79
2024/03/11 00:03:38;;;;;;;14.02;11.40;;;12.50;86.90;;;;;;5015513;28;20549;-79
2024/03/11 00:06:04;;;;;;;14.32;11.45;;;12.50;86.90;;;;;;5015381;28;20030;-79
2024/03/11 00:08:31;;;;;;;14.85;10.82;;;12.50;86.90;;;;;;5013599;28;20467;-80
2024/03/11 00:11:00;;;;;;;15.80;11.68;;;12.50;87.00;;;;;;5013358;28;20025;-79
2024/03/11 00:13:32;;;;;;;14.52;11.30;;;12.50;86.90;;;;;;4997074;28;20033;-79
2024/03/11 00:16:00;;;;;;;14.30;10.80;;;12.50;86.90;;;;;;4997324;28;20479;-79
2024/03/11 00:18:26;;;;;;;14.20;10.90;;;12.50;86.90;;;;;;4997321;28;20022;-78
2024/03/11 00:20:52;;;;;;;12.93;10.75;;;12.40;86.90;;;;;;4996920;28;20125;-79
2024/03/11 00:23:18;;;;;;;12.90;10.52;;;12.50;86.90;;;;;;4996953;28;20493;-81
2024/03/11 00:25:44;;;;;;;13.57;11.00;;;12.50;86.90;;;;;;4996708;28;20104;-79
2024/03/11 00:28:09;;;;;;;14.35;11.05;;;12.50;87.00;;;;;;4996943;28;20105;-79
2024/03/11 00:30:35;;;;;;;14.07;11.05;;;12.50;87.00;;;;;;4996790;28;20044;-79
2024/03/11 00:33:02;;;;;;;13.05;10.50;;;12.50;86.90;;;;;;4996098;28;20140;-80
2024/03/11 00:35:28;;;;;;;14.55;11.23;;;12.50;87.50;;;;;;4996669;28;20632;-78
2024/03/11 00:37:54;;;;;;;13.90;11.38;;;12.50;87.00;;;;;;5014480;28;20604;-78
2024/03/11 00:40:20;;;;;;;13.88;11.13;;;12.50;86.90;;;;;;4996636;28;20088;-79
2024/03/11 00:42:45;;;;;;;14.25;11.45;;;12.50;87.00;;;;;;5013785;28;20040;-79
2024/03/11 00:45:11;;;;;;;14.60;11.48;;;12.50;87.00;;;;;;5014248;28;20113;-80
2024/03/11 00:47:41;;;;;;;14.57;11.48;;;12.50;87.00;;;;;;5013288;28;20022;-79
2024/03/11 00:50:09;;;;;;;14.18;10.93;;;12.50;87.00;;;;;;4996781;28;20052;-78
2024/03/11 00:52:35;;;;;;;14.88;11.48;;;12.40;86.90;;;;;;5013895;28;20026;-79
2024/03/11 00:55:02;;;;;;;14.43;11.10;;;12.50;87.00;;;;;;5013810;28;20026;-79
2024/03/11 00:57:29;;;;;;;12.88;10.48;;;12.50;87.00;;;;;;5013971;28;20033;-79
2024/03/11 00:59:55;;;;;;;14.07;11.15;;;12.50;87.00;;;;;;5013955;28;20033;-79
2024/03/11 01:02:24;;;;;;;12.90;10.63;;;12.40;87.00;;;;;;5012772;28;20483;-79
2024/03/11 01:04:52;;;;;;;14.52;11.63;;;12.50;87.00;;;;;;5014082;28;20032;-78
2024/03/11 01:07:19;;;;;;;14.75;11.00;;;12.50;87.00;;;;;;5012625;28;20049;-79
2024/03/11 01:09:44;;;;;;;13.45;10.80;;;12.40;87.00;;;;;;5013402;28;20038;-79
2024/03/11 01:12:10;;;;;;;14.40;11.65;;;12.50;87.00;;;;;;5013330;28;20402;-78
2024/03/11 01:14:36;;;;;;;13.77;11.15;;;12.40;87.00;;;;;;5013269;28;20029;-79
2024/03/11 01:17:01;;;;;;;13.88;11.27;;;12.50;87.10;;;;;;4995690;28;20022;-80
2024/03/11 01:19:27;;;;;;;13.77;10.60;;;12.40;87.00;;;;;;5013063;28;20021;-80
2024/03/11 01:21:53;;;;;;;13.15;10.68;;;12.40;87.00;;;;;;4995837;28;20033;-79
2024/03/11 01:24:20;;;;;;;12.73;10.38;;;12.40;87.00;;;;;;4995641;28;20030;-80
2024/03/11 01:26:47;;;;;;;13.85;11.10;;;12.40;87.00;;;;;;5013066;28;20080;-79
2024/03/11 01:29:16;;;;;;;14.40;11.07;;;12.40;87.00;;;;;;4995605;28;20022;-79
2024/03/11 01:31:45;;;;;;;13.32;11.05;;;12.40;87.00;;;;;;4995548;28;20022;-79
2024/03/11 01:34:11;;;;;;;13.43;10.50;;;12.40;87.00;;;;;;4995800;28;20022;-79
2024/03/11 01:36:36;;;;;;;14.55;10.98;;;12.40;87.00;;;;;;5011904;28;20556;-79
2024/03/11 01:39:08;;;;;;;13.70;10.95;;;12.50;87.10;;;;;;5013404;28;20417;-78
2024/03/11 01:41:36;;;;;;;14.40;11.05;;;12.50;87.10;;;;;;4995865;28;20033;-79
2024/03/11 01:44:02;;;;;;;13.15;10.13;;;12.50;87.10;;;;;;5011392;28;20514;-79
2024/03/11 01:46:27;;;;;;;13.27;10.70;;;12.50;87.10;;;;;;4995449;28;20064;-79
2024/03/11 01:48:53;;;;;;;13.27;10.55;;;12.50;87.10;;;;;;5013290;28;20096;-80
2024/03/11 01:51:21;;;;;;;13.98;11.43;;;12.40;87.00;;;;;;5012979;28;20022;-80
2024/03/11 01:53:47;;;;;;;13.70;10.80;;;12.50;87.10;;;;;;4995306;28;20018;-80
2024/03/11 01:56:12;;;;;;;13.80;10.75;;;12.40;87.00;;;;;;5012984;28;20195;-78
2024/03/11 01:58:40;;;;;;;13.93;10.38;;;12.50;87.60;;;;;;5013057;28;20026;-79
2024/03/11 02:01:07;;;;;;;14.15;10.98;;;12.50;87.10;;;;;;5013143;28;20030;-79
2024/03/11 02:03:33;;;;;;;13.50;10.43;;;12.40;87.00;;;;;;4995584;28;20026;-80
2024/03/11 02:05:58;;;;;;;13.93;11.23;;;12.40;87.10;;;;;;5013579;28;20032;-79
2024/03/11 02:08:25;;;;;;;13.48;10.73;;;12.40;87.00;;;;;;5012835;28;20383;-79
2024/03/11 02:10:51;;;;;;;13.05;10.13;;;12.40;87.00;;;;;;5012861;28;20498;-79
2024/03/11 02:13:18;;;;;;;13.40;10.48;;;12.40;87.00;;;;;;5012857;28;20049;-80
2024/03/11 02:15:44;;;;;;;12.90;10.32;;;12.50;87.10;;;;;;5012942;28;20084;-79
2024/03/11 02:18:09;;;;;;;12.43;10.50;;;12.40;87.00;;;;;;4995007;28;20030;-80
2024/03/11 02:20:39;;;;;;;13.10;10.57;;;12.40;87.00;;;;;;5012586;28;20030;-78
2024/03/11 02:23:06;;;;;;;13.43;10.43;;;12.40;87.10;;;;;;4995145;28;20075;-79
2024/03/11 02:25:31;;;;;;;13.35;10.63;;;12.40;87.10;;;;;;5012562;28;20026;-79
2024/03/11 02:28:03;;;;;;;12.60;10.70;;;12.40;87.10;;;;;;4995470;28;20026;-79
2024/03/11 02:30:28;;;;;;;12.35;10.30;;;12.40;87.00;;;;;;4995101;28;20058;-79
2024/03/11 02:32:54;;;;;;;13.48;10.35;;;12.40;87.10;;;;;;4994931;28;20049;-79
2024/03/11 02:35:20;;;;;;;13.73;10.52;;;12.50;87.10;;;;;;4995311;28;20030;-79
2024/03/11 02:37:46;;;;;;;13.13;10.32;;;12.40;87.10;;;;;;5012564;28;20506;-79
2024/03/11 02:40:13;;;;;;;13.23;10.30;;;12.40;87.10;;;;;;5012506;28;20033;-78
2024/03/11 02:42:42;;;;;;;12.80;10.30;;;12.40;87.10;;;;;;4994893;28;20115;-79
2024/03/11 02:45:11;;;;;;;12.85;10.35;;;12.40;87.10;;;;;;5012556;28;20064;-79
2024/03/11 02:47:37;;;;;;;13.60;11.10;;;12.40;87.10;;;;;;5012744;28;20029;-79
2024/03/11 02:50:06;;;;;;;13.82;10.77;;;12.40;87.10;;;;;;5012495;28;20624;-79
2024/03/11 02:52:36;;;;;;;12.43;9.90;;;12.40;87.10;;;;;;5012294;28;20037;-80
2024/03/11 02:55:03;;;;;;;13.18;10.25;;;12.40;87.10;;;;;;5012674;28;20487;-78
2024/03/11 02:57:29;;;;;;;12.55;10.15;;;12.40;87.10;;;;;;4998338;28;20475;-80
2024/03/11 02:59:54;;;;;;;12.80;10.35;;;12.40;87.10;;;;;;5015941;28;20030;-80
2024/03/11 03:02:20;;;;;;;12.55;10.02;;;12.40;87.10;;;;;;4999048;28;20030;-79
2024/03/11 03:04:46;;;;;;;12.95;10.07;;;12.40;87.10;;;;;;4999222;28;20044;-81
2024/03/11 03:07:14;;;;;;;12.73;10.02;;;12.40;87.40;;;;;;5016376;28;20037;-81
2024/03/11 03:09:40;;;;;;;13.00;10.13;;;12.40;87.10;;;;;;5016012;28;20468;-80
2024/03/11 03:12:09;;;;;;;12.20;10.10;;;12.40;87.10;;;;;;5015674;28;20021;-79
2024/03/11 03:14:37;;;;;;;13.02;10.15;;;12.40;87.10;;;;;;5015784;28;20106;-79
2024/03/11 03:17:04;;;;;;;12.70;10.20;;;12.40;87.10;;;;;;4998364;28;20022;-78
2024/03/11 03:19:29;;;;;;;13.57;10.77;;;12.40;87.10;;;;;;5015989;28;20037;-79
2024/03/11 03:21:55;;;;;;;13.80;10.82;;;12.40;87.10;;;;;;5015595;28;20038;-79
2024/03/11 03:24:20;;;;;;;12.55;10.13;;;12.40;87.10;;;;;;5015515;28;20036;-79
2024/03/11 03:26:46;;;;;;;12.63;9.82;;;12.40;87.10;;;;;;4998014;28;20391;-79
2024/03/11 03:29:11;;;;;;;13.55;10.18;;;12.40;87.10;;;;;;5015576;28;20054;-79
2024/03/11 03:31:37;;;;;;;13.48;10.68;;;12.40;87.10;;;;;;4998011;28;20018;-80
2024/03/11 03:34:04;;;;;;;13.32;10.48;;;12.40;87.10;;;;;;4997976;28;20021;-79
2024/03/11 03:36:30;;;;;;;13.70;10.55;;;12.40;87.20;;;;;;4997993;28;20054;-79
2024/03/11 03:38:56;;;;;;;12.55;10.00;;;12.40;87.10;;;;;;5011025;28;20498;-80
2024/03/11 03:41:21;;;;;;;13.07;10.63;;;12.40;87.20;;;;;;5012619;28;20024;-79
2024/03/11 03:43:48;;;;;;;12.73;10.40;;;12.50;87.20;;;;;;4997298;28;20026;-79
2024/03/11 03:46:16;;;;;;;12.25;10.05;;;12.40;87.20;;;;;;4997740;28;20506;-79
2024/03/11 03:48:42;;;;;;;13.68;10.63;;;12.40;87.20;;;;;;5015631;28;20022;-80
2024/03/11 03:51:08;;;;;;;13.68;10.98;;;12.30;87.10;;;;;;5015177;28;20097;-79
2024/03/11 03:53:33;;;;;;;12.73;10.43;;;12.50;87.30;;;;;;5015042;28;20049;-78
2024/03/11 03:55:59;;;;;;;13.52;10.80;;;12.40;87.20;;;;;;5014982;28;20109;-79
2024/03/11 03:58:25;;;;;;;12.60;9.93;;;12.40;87.20;;;;;;5014848;28;20030;-79
2024/03/11 04:00:50;;;;;;;12.60;9.82;;;12.40;87.20;;;;;;5015282;28;20022;-79
2024/03/11 04:03:16;;;;;;;13.10;10.25;;;12.40;87.20;;;;;;5015075;28;20713;-79
2024/03/11 04:05:41;;;;;;;13.27;10.30;;;12.40;87.20;;;;;;5015676;28;20032;-79
2024/03/11 04:08:07;;;;;;;12.50;10.00;;;12.40;87.20;;;;;;5014312;28;20045;-79
2024/03/11 04:10:34;;;;;;;13.32;10.35;;;12.40;87.20;;;;;;4997370;28;20113;-79
2024/03/11 04:12:59;;;;;;;14.05;11.00;;;12.40;87.20;;;;;;4996967;28;20109;-79
2024/03/11 04:15:25;;;;;;;13.43;10.60;;;12.40;87.20;;;;;;5014792;28;20177;-79
2024/03/11 04:17:55;;;;;;;13.05;10.30;;;12.40;87.20;;;;;;5014725;28;20026;-79
2024/03/11 04:20:27;;;;;;;12.27;9.70;;;12.40;87.30;;;;;;5014639;28;20022;-79
2024/03/11 04:22:53;;;;;;;13.23;10.20;;;12.40;87.20;;;;;;4996887;28;20115;-79
2024/03/11 04:25:22;;;;;;;13.88;10.85;;;12.40;87.20;;;;;;5014517;28;20077;-79
2024/03/11 04:27:50;;;;;;;11.80;9.70;;;12.40;87.30;;;;;;4997153;28;20642;-79
2024/03/11 04:30:19;;;;;;;13.15;10.05;;;12.40;87.20;;;;;;4996886;28;20026;-80
2024/03/11 04:32:51;;;;;;;12.48;10.23;;;12.40;87.20;;;;;;4996796;28;20028;-78
2024/03/11 04:35:17;;;;;;;12.55;10.18;;;12.40;87.20;;;;;;5014483;28;20026;-79
2024/03/11 04:37:43;;;;;;;13.45;10.50;;;12.40;87.20;;;;;;5014321;28;20026;-80
2024/03/11 04:40:09;;;;;;;13.05;10.15;;;12.40;87.20;;;;;;4996702;28;20052;-78
2024/03/11 04:42:35;;;;;;;13.13;10.40;;;12.40;87.20;;;;;;5014167;28;20033;-79
2024/03/11 04:45:00;;;;;;;13.27;9.95;;;12.40;87.20;;;;;;4996630;28;20022;-78
2024/03/11 04:47:26;;;;;;;13.63;10.73;;;12.40;87.30;;;;;;4996779;28;20407;-80
2024/03/11 04:49:51;;;;;;;13.25;10.05;;;12.40;87.20;;;;;;5014367;28;20113;-78
2024/03/11 04:52:16;;;;;;;12.80;10.02;;;12.30;87.20;;;;;;5013801;28;20068;-79
2024/03/11 04:54:42;;;;;;;13.45;10.88;;;12.40;87.20;;;;;;4996509;28;20483;-79
2024/03/11 04:57:08;;;;;;;13.05;9.77;;;12.40;87.30;;;;;;4996296;28;20063;-79
2024/03/11 04:59:33;;;;;;;12.43;9.60;;;12.40;87.30;;;;;;4996262;28;20029;-79
2024/03/11 05:01:59;;;;;;;12.68;9.82;;;12.40;87.30;;;;;;4996370;28;20509;-78
2024/03/11 05:04:24;;;;;;;12.90;10.23;;;12.40;87.30;;;;;;5014477;28;20368;-79
2024/03/11 05:06:50;;;;;;;13.65;10.30;;;12.40;87.30;;;;;;5014331;28;20026;-79
2024/03/11 05:09:15;;;;;;;12.50;9.85;;;12.40;87.30;;;;;;4996179;28;20414;-80
2024/03/11 05:11:41;;;;;;;12.63;9.80;;;12.40;87.30;;;;;;5013807;28;20018;-78
2024/03/11 05:14:06;;;;;;;13.10;10.77;;;12.40;87.30;;;;;;4996087;28;20546;-79
2024/03/11 05:16:32;;;;;;;13.82;10.43;;;12.40;87.20;;;;;;5013641;28;20434;-79
2024/03/11 05:18:58;;;;;;;13.18;10.55;;;12.40;87.20;;;;;;4995834;28;20022;-79
2024/03/11 05:21:24;;;;;;;12.32;9.82;;;12.40;87.20;;;;;;5013793;28;20086;-79
2024/03/11 05:23:50;;;;;;;13.27;10.15;;;12.40;87.30;;;;;;4996697;28;20073;-79
2024/03/11 05:26:17;;;;;;;13.75;10.35;;;12.40;87.30;;;;;;5013398;28;20030;-80
2024/03/11 05:28:44;;;;;;;13.13;10.38;;;12.40;87.30;;;;;;4995842;28;20018;-79
2024/03/11 05:31:10;;;;;;;12.38;9.68;;;12.40;87.30;;;;;;5013466;28;20083;-78
2024/03/11 05:33:35;;;;;;;13.48;10.15;;;12.40;87.30;;;;;;5013106;28;20131;-79
2024/03/11 05:36:01;;;;;;;13.55;10.32;;;12.40;87.30;;;;;;4995576;28;20061;-79
2024/03/11 05:38:27;;;;;;;12.98;10.27;;;12.40;87.30;;;;;;5013082;28;20044;-79
2024/03/11 05:40:53;;;;;;;12.50;9.75;;;12.40;87.30;;;;;;4997708;28;20034;-81
2024/03/11 05:43:18;;;;;;;13.07;10.57;;;12.40;87.30;;;;;;5008981;28;20052;-81
2024/03/11 05:45:47;;;;;;;13.63;10.23;;;12.40;87.80;;;;;;4990005;28;20026;-78
2024/03/11 05:48:13;;;;;;;12.88;10.10;;;12.40;87.30;;;;;;4989404;28;20436;-81
2024/03/11 05:50:38;;;;;;;12.60;9.70;;;12.40;87.30;;;;;;4990126;28;20026;-81
2024/03/11 05:53:05;;;;;;;14.07;10.43;;;12.40;87.30;;;;;;4984355;28;20022;-82
2024/03/11 05:55:33;;;;;;;12.65;10.18;;;12.40;87.30;;;;;;4991639;28;20045;-83
2024/03/11 05:58:08;;;;;;;12.75;10.23;;;12.40;87.30;;;;;;4989776;28;20026;-81
2024/03/11 06:00:36;;;;;;;13.40;10.30;;;12.40;87.30;;;;;;4998136;28;20026;-82
2024/03/11 06:03:02;;;;;;;14.07;10.43;;;12.40;87.30;;;;;;5007765;28;20097;-83
2024/03/11 06:05:28;;;;;;;12.95;9.82;;;12.40;87.30;;;;;;5005793;28;20036;-82
2024/03/11 06:07:53;;;;;;;11.57;9.50;;;12.40;87.30;;;;;;5005069;28;20030;-81
2024/03/11 06:10:19;;;;;;;13.52;10.75;;;12.40;87.30;;;;;;5005373;28;20022;-81
2024/03/11 06:12:44;;;;;;;13.98;10.57;;;12.40;87.40;;;;;;4997222;28;20030;-80
2024/03/11 06:15:10;;;;;;;13.05;9.75;;;12.40;87.30;;;;;;4988987;28;20198;-82
2024/03/11 06:17:35;;;;;;;12.45;9.75;;;12.40;87.30;;;;;;5006450;28;20034;-82
2024/03/11 06:20:09;;;;;;;12.07;9.38;;;12.50;87.40;;;;;;5006696;28;20554;-81
2024/03/11 06:22:35;;;;;;;13.07;10.23;;;12.40;87.30;;;;;;4988460;28;20040;-79
2024/03/11 06:25:04;;;;;;;13.25;9.80;;;12.40;87.30;;;;;;5003503;28;20179;-80
2024/03/11 06:27:29;;;;;;;12.75;10.00;;;12.40;87.30;;;;;;5008517;28;20033;-80
2024/03/11 06:29:56;;;;;;;12.43;9.85;;;12.40;87.30;;;;;;4988548;28;20030;-80
2024/03/11 06:32:23;;;;;;;12.07;9.43;;;12.40;87.40;;;;;;5009710;28;20034;-79
2024/03/11 06:34:49;;;;;;;13.32;10.25;;;12.40;87.50;;;;;;5011007;28;20589;-80
2024/03/11 06:37:14;;;;;;;12.63;10.05;;;12.40;87.30;;;;;;4990938;28;20037;-78
2024/03/11 06:39:40;;;;;;;13.15;10.40;;;12.40;87.30;;;;;;5009425;28;20490;-79
2024/03/11 06:42:06;;;;;;;12.10;9.55;;;12.40;87.30;;;;;;5011231;28;20089;-78
2024/03/11 06:44:32;;;;;;;13.25;10.50;;;12.40;87.30;;;;;;5008632;28;20481;-79
2024/03/11 06:46:58;;;;;;;12.70;10.07;;;12.40;87.30;;;;;;5009874;28;20494;-78
2024/03/11 06:49:23;;;;;;;13.15;9.88;;;12.40;87.30;;;;;;5009684;28;20058;-78
2024/03/11 06:51:50;;;;;;;16.45;10.80;;;12.40;87.30;;;;;;4992075;28;20375;-78
2024/03/11 06:54:16;;;;;;;31.27;13.23;;;12.40;87.40;;;;;;4992274;28;20448;-78
2024/03/11 06:56:41;;;;;;;22.88;14.90;;;12.40;86.70;;;;;;4992700;28;20446;-78
2024/03/11 06:59:07;;;;;;;21.13;13.88;;;12.40;86.20;;;;;;5009279;28;20460;-78
2024/03/11 07:01:33;;;;;;;19.10;13.13;;;12.30;86.00;;;;;;4991982;28;20183;-79
2024/03/11 07:03:58;;;;;;;19.02;12.70;;;12.40;86.30;;;;;;4991930;28;20025;-79
2024/03/11 07:06:24;;;;;;;20.27;13.18;;;12.30;86.30;;;;;;5009480;28;20037;-79
2024/03/11 07:08:50;;;;;;;18.27;13.27;;;12.40;86.20;;;;;;4992463;28;20187;-76
2024/03/11 07:11:15;;;;;;;19.90;13.40;;;12.40;86.20;;;;;;5008841;28;20033;-78
2024/03/11 07:13:42;;;;;;;19.50;13.60;;;12.40;86.20;;;;;;4991353;28;20026;-79
2024/03/11 07:16:09;;;;;;;21.50;14.10;;;12.40;86.30;;;;;;4991129;28;20055;-78
2024/03/11 07:18:35;;;;;;;18.55;12.55;;;12.40;86.40;;;;;;4992686;28;20112;-78
2024/03/11 07:21:04;;;;;;;18.77;13.38;;;12.40;86.40;;;;;;4992899;28;20454;-78
2024/03/11 07:23:31;;;;;;;15.30;12.38;;;12.40;86.50;;;;;;5010440;28;20036;-79
2024/03/11 07:25:58;;;;;;;17.63;13.13;;;12.40;86.50;;;;;;4992937;28;20060;-78
2024/03/11 07:28:27;;;;;;;18.63;13.05;;;12.40;86.50;;;;;;4993222;28;20032;-78
2024/03/11 07:30:53;;;;;;;17.60;12.48;;;12.40;86.60;;;;;;4991895;28;20030;-77
2024/03/11 07:33:20;;;;;;;19.42;13.02;;;12.40;86.70;;;;;;4991838;28;20022;-78
2024/03/11 07:35:47;;;;;;;17.23;12.93;;;12.40;86.70;;;;;;4992454;28;20044;-78
2024/03/11 07:38:14;;;;;;;20.23;12.93;;;12.40;86.70;;;;;;4992149;28;20108;-78
2024/03/11 07:40:39;;;;;;;18.63;13.25;;;12.60;86.80;;;;;;4991618;28;20325;-78
2024/03/11 07:43:08;;;;;;;18.30;12.95;;;12.40;86.80;;;;;;4992029;28;20037;-78
2024/03/11 07:45:37;;;;;;;16.08;12.70;;;12.40;86.80;;;;;;4992434;28;20056;-78
2024/03/11 07:48:03;;;;;;;18.48;13.30;;;12.40;86.80;;;;;;4991872;28;20018;-77
2024/03/11 07:50:29;;;;;;;17.40;12.35;;;12.40;86.80;;;;;;4991334;28;20032;-79
2024/03/11 07:52:54;;;;;;;16.08;12.45;;;12.40;86.80;;;;;;4992080;28;20030;-77
2024/03/11 07:55:24;;;;;;;17.40;12.43;;;12.40;86.90;;;;;;4990483;28;20458;-77
2024/03/11 07:57:51;;;;;;;17.00;12.50;;;12.40;86.90;;;;;;4989504;28;20566;-77
2024/03/11 08:00:21;;;;;;;16.45;12.02;;;12.40;86.90;;;;;;4989187;28;20060;-77
2024/03/11 08:02:50;;;;;;;18.15;13.55;;;12.40;86.90;;;;;;4988717;28;20038;-76
2024/03/11 08:05:17;;;;;;;18.38;13.05;;;12.30;86.90;;;;;;5007490;28;20038;-78
2024/03/11 08:07:45;;;;;;;17.13;12.57;;;12.30;86.90;;;;;;5008359;28;20617;-78
2024/03/11 08:10:12;;;;;;;17.40;12.13;;;12.40;87.00;;;;;;5007969;28;20475;-77
2024/03/11 08:12:39;;;;;;;15.65;12.40;;;12.40;87.00;;;;;;4989642;28;20040;-78
2024/03/11 08:15:07;;;;;;;17.98;12.38;;;12.40;87.00;;;;;;5009259;28;20025;-77
2024/03/11 08:17:34;;;;;;;16.88;12.65;;;12.40;87.00;;;;;;5003677;28;20414;-76
2024/03/11 08:19:59;;;;;;;16.33;12.50;;;12.40;87.00;;;;;;4990942;28;20466;-78
2024/03/11 08:22:26;;;;;;;15.60;12.18;;;12.40;87.00;;;;;;5006445;28;20113;-78
2024/03/11 08:24:51;;;;;;;16.38;12.48;;;12.40;87.00;;;;;;5006707;28;20022;-76
2024/03/11 08:27:16;;;;;;;15.50;12.35;;;12.40;87.00;;;;;;4988891;28;20036;-76
2024/03/11 08:29:43;;;;;;;15.57;12.25;;;12.40;87.00;;;;;;5004747;28;20026;-77
2024/03/11 08:32:12;;;;;;;16.00;12.15;;;12.40;87.00;;;;;;5005651;28;20526;-77
2024/03/11 08:34:38;;;;;;;16.60;12.38;;;12.30;87.50;;;;;;5006214;28;20037;-78
2024/03/11 08:37:04;;;;;;;16.38;12.75;;;12.40;87.00;;;;;;5006005;28;20410;-77
2024/03/11 08:39:30;;;;;;;16.58;12.52;;;12.40;87.00;;;;;;5004742;28;20044;-77
2024/03/11 08:41:57;;;;;;;17.08;12.60;;;12.40;87.00;;;;;;5006294;28;20045;-78
2024/03/11 08:44:23;;;;;;;16.58;12.75;;;12.40;87.00;;;;;;4993528;28;20030;-78
2024/03/11 08:46:50;;;;;;;16.30;13.00;;;12.40;87.00;;;;;;5011930;28;20581;-77
2024/03/11 08:49:15;;;;;;;16.30;12.98;;;12.30;87.00;;;;;;4994147;28;20029;-78
2024/03/11 08:51:41;;;;;;;15.65;11.85;;;12.40;87.10;;;;;;5011736;28;20368;-77
2024/03/11 08:54:07;;;;;;;16.42;12.32;;;12.40;87.00;;;;;;5010927;28;20022;-78
2024/03/11 08:56:34;;;;;;;16.58;12.13;;;12.40;87.00;;;;;;4993716;28;20036;-77
2024/03/11 08:59:01;;;;;;;16.08;11.82;;;12.40;87.10;;;;;;4993994;28;20033;-78
2024/03/11 09:01:29;;;;;;;16.58;12.23;;;12.40;87.00;;;;;;5012205;28;20486;-79
2024/03/11 09:03:55;;;;;;;17.58;12.85;;;12.40;86.90;;;;;;4993903;28;20034;-77
2024/03/11 09:06:22;;;;;;;16.75;12.43;;;12.50;86.90;;;;;;4994047;28;20041;-78
2024/03/11 09:08:49;;;;;;;16.83;12.70;;;12.40;86.80;;;;;;5011875;28;20021;-79
2024/03/11 09:11:15;;;;;;;16.50;12.10;;;12.50;86.90;;;;;;4994254;28;20029;-78
2024/03/11 09:13:44;;;;;;;16.48;12.05;;;12.50;86.80;;;;;;5011489;28;20030;-79
2024/03/11 09:16:10;;;;;;;17.35;12.90;;;12.50;86.80;;;;;;5011796;28;20099;-79
2024/03/11 09:18:37;;;;;;;16.88;12.45;;;12.50;86.80;;;;;;5011626;28;20542;-78
2024/03/11 09:21:05;;;;;;;16.60;12.88;;;12.50;87.30;;;;;;4993689;28;20025;-78
2024/03/11 09:23:31;;;;;;;16.27;12.35;;;12.50;86.80;;;;;;5011483;28;20025;-78
2024/03/11 09:25:56;;;;;;;15.32;12.15;;;12.50;86.80;;;;;;5011337;28;20034;-78
2024/03/11 09:28:22;;;;;;;15.38;11.75;;;12.50;86.80;;;;;;4993948;28;20029;-77
2024/03/11 09:30:47;;;;;;;16.63;12.48;;;12.50;86.90;;;;;;4993720;28;20022;-78
2024/03/11 09:33:14;;;;;;;16.05;12.45;;;12.50;86.80;;;;;;5011573;28;20022;-78
2024/03/11 09:35:40;;;;;;;15.57;12.93;;;12.50;86.70;;;;;;4993696;28;20026;-78
2024/03/11 09:38:05;;;;;;;16.02;12.00;;;12.50;86.70;;;;;;5011409;28;20036;-78
2024/03/11 09:40:31;;;;;;;15.00;11.73;;;12.50;86.80;;;;;;4993627;28;20390;-79
2024/03/11 09:43:01;;;;;;;15.88;11.57;;;12.50;86.70;;;;;;4993362;28;20033;-78
2024/03/11 09:45:28;;;;;;;16.52;12.70;;;12.50;86.70;;;;;;5011316;28;20088;-78
2024/03/11 09:47:57;;;;;;;17.48;12.45;;;12.60;86.70;;;;;;5011235;28;20454;-78
2024/03/11 09:50:30;;;;;;;15.90;12.15;;;12.60;86.70;;;;;;5011053;28;20028;-78
2024/03/11 09:52:58;;;;;;;16.17;12.35;;;12.50;86.60;;;;;;5010882;28;20030;-77
2024/03/11 09:55:28;;;;;;;16.10;11.70;;;12.50;86.70;;;;;;5011181;28;20021;-77
2024/03/11 09:57:56;;;;;;;17.35;12.38;;;12.50;86.80;;;;;;4993232;28;20025;-78
2024/03/11 10:00:24;;;;;;;14.95;12.05;;;12.50;86.60;;;;;;4993559;28;20521;-78
2024/03/11 10:02:54;;;;;;;16.33;12.73;;;12.50;86.80;;;;;;4992973;28;20037;-78
2024/03/11 10:05:22;;;;;;;17.33;12.45;;;12.50;86.80;;;;;;5010177;28;20144;-78
2024/03/11 10:07:49;;;;;;;14.98;11.75;;;12.50;86.90;;;;;;4993463;28;20033;-78
2024/03/11 10:10:16;;;;;;;15.75;12.68;;;12.50;86.90;;;;;;5010972;28;20025;-78
2024/03/11 10:12:54;;;;;;;16.67;12.27;;;12.50;86.80;;;;;;4992932;28;20025;-78
2024/03/11 10:15:32;;;;;;;17.38;12.02;;;12.50;86.90;;;;;;5010718;28;20033;-78
2024/03/11 10:18:15;;;;;;;16.98;12.75;;;12.50;86.90;;;;;;4993209;28;20625;-78
2024/03/11 10:20:56;;;;;;;17.27;13.67;;;12.50;86.90;;;;;;5010778;28;20041;-77
2024/03/11 10:23:23;;;;;;;17.70;12.35;;;12.50;86.60;;;;;;5010538;28;20265;-79
2024/03/11 10:25:51;;;;;;;15.35;11.73;;;12.50;86.70;;;;;;5011556;28;20397;-77
2024/03/11 10:28:31;;;;;;;16.35;13.52;;;12.50;86.70;;;;;;4993141;28;20057;-78
2024/03/11 10:30:58;;;;;;;16.05;13.00;;;12.50;86.70;;;;;;5010629;28;20069;-78
2024/03/11 10:33:31;;;;;;;16.27;12.55;;;12.50;86.90;;;;;;5010634;28;20105;-78
2024/03/11 10:36:07;;;;;;;16.70;13.02;;;12.50;86.80;;;;;;5010954;28;20022;-78
2024/03/11 10:38:32;;;;;;;16.20;12.75;;;12.50;86.60;;;;;;5010580;28;20467;-78
2024/03/11 10:41:16;;;;;;;15.57;12.45;;;12.40;86.80;;;;;;5010334;28;20029;-79
2024/03/11 10:43:42;;;;;;;17.13;13.13;;;12.50;86.70;;;;;;5010292;28;20101;-77
2024/03/11 10:46:22;;;;;;;16.27;12.50;;;12.50;86.90;;;;;;4993151;28;20102;-78
2024/03/11 10:48:50;;;;;;;16.70;13.10;;;12.40;86.60;;;;;;4992784;28;20383;-78
2024/03/11 10:51:21;;;;;;;17.30;12.80;;;12.50;86.80;;;;;;4993232;28;20026;-78
2024/03/11 10:53:49;;;;;;;16.10;12.95;;;12.50;86.90;;;;;;5010007;28;20105;-78
2024/03/11 10:56:20;;;;;;;16.92;12.98;;;12.50;86.80;;;;;;4992681;28;20077;-78
2024/03/11 10:59:03;;;;;;;17.00;12.90;;;12.50;86.70;;;;;;5010558;28;20479;-78
2024/03/11 11:01:33;;;;;;;17.42;12.77;;;12.50;86.80;;;;;;4993104;28;20379;-78
2024/03/11 11:04:19;;;;;;;16.55;12.77;;;12.40;86.60;;;;;;5010158;28;20104;-78
2024/03/11 11:06:46;;;;;;;16.48;12.77;;;12.40;86.80;;;;;;4992879;28;20030;-78
2024/03/11 11:09:13;;;;;;;16.65;13.25;;;12.50;86.70;;;;;;4992556;28;20077;-78
2024/03/11 11:11:53;;;;;;;15.73;11.70;;;12.50;86.70;;;;;;4992485;28;20046;-78
2024/03/11 11:14:19;;;;;;;14.85;11.70;;;12.50;86.80;;;;;;4992608;28;20349;-78
2024/03/11 11:16:45;;;;;;;15.80;11.93;;;12.50;86.90;;;;;;5010943;28;20030;-78
2024/03/11 11:19:22;;;;;;;15.93;12.30;;;12.50;86.70;;;;;;4996046;28;20395;-77
2024/03/11 11:21:48;;;;;;;16.27;12.60;;;12.50;86.80;;;;;;4996016;28;20390;-77
2024/03/11 11:24:29;;;;;;;15.27;11.77;;;12.40;86.90;;;;;;5014002;28;20068;-78
2024/03/11 11:26:59;;;;;;;15.52;11.25;;;12.50;86.90;;;;;;5013728;28;20049;-78
2024/03/11 11:29:27;;;;;;;14.73;11.60;;;12.50;86.70;;;;;;5013689;28;20394;-78
2024/03/11 11:32:07;;;;;;;14.35;11.05;;;12.50;86.70;;;;;;4995536;28;20032;-78
2024/03/11 11:34:45;;;;;;;14.20;11.10;;;12.50;86.80;;;;;;4995954;28;20030;-78
2024/03/11 11:37:13;;;;;;;15.35;11.55;;;12.40;86.80;;;;;;5013683;28;20092;-78
2024/03/11 11:39:39;;;;;;;15.38;11.85;;;12.50;86.90;;;;;;5013249;28;20022;-78
2024/03/11 11:42:25;;;;;;;16.02;11.48;;;12.50;86.80;;;;;;4995507;28;20026;-78
2024/03/11 11:44:51;;;;;;;15.05;11.10;;;12.50;86.70;;;;;;5013439;28;20037;-78
2024/03/11 11:47:20;;;;;;;17.48;11.98;;;12.50;86.70;;;;;;4995701;28;20076;-78
2024/03/11 11:49:47;;;;;;;14.95;11.73;;;12.40;86.60;;;;;;4995899;28;20036;-77
2024/03/11 11:52:16;;;;;;;14.35;11.38;;;12.40;86.70;;;;;;4995700;28;20018;-77
2024/03/11 11:54:42;;;;;;;15.18;11.18;;;12.40;86.60;;;;;;5012920;28;20026;-78
2024/03/11 11:59:40;;;;;;;14.13;11.23;;;12.40;86.50;;;;;;5013476;28;20494;-78
2024/03/11 12:02:19;;;;;;;15.40;11.35;;;12.40;86.40;;;;;;4995257;28;20042;-78
2024/03/11 12:04:54;;;;;;;15.40;11.15;;;12.40;86.40;;;;;;4995370;28;20029;-77
2024/03/11 12:07:23;;;;;;;14.10;10.90;;;12.40;86.50;;;;;;5013088;28;20046;-78
2024/03/11 12:09:57;;;;;;;14.50;10.30;;;12.40;86.40;;;;;;4994923;28;20022;-78
2024/03/11 12:12:34;;;;;;;13.68;10.77;;;12.40;86.50;;;;;;4995065;28;20407;-78
2024/03/11 12:15:01;;;;;;;13.43;10.45;;;12.40;86.20;;;;;;4995074;28;20100;-78
2024/03/11 12:17:31;;;;;;;13.80;10.50;;;12.40;86.50;;;;;;5012826;28;20352;-79
2024/03/11 12:20:21;;;;;;;14.70;10.90;;;12.40;86.30;;;;;;5012633;28;20052;-77
2024/03/11 12:22:48;;;;;;;12.85;10.07;;;12.40;86.60;;;;;;4994949;28;20034;-78
2024/03/11 12:25:15;;;;;;;14.00;10.40;;;12.40;86.60;;;;;;4995015;28;20087;-78
2024/03/11 12:27:42;;;;;;;13.07;9.82;;;12.40;86.50;;;;;;5012343;28;20429;-77
2024/03/11 12:30:16;;;;;;;12.05;9.48;;;12.40;86.30;;;;;;4994228;28;20021;-78
2024/03/11 12:32:42;;;;;;;12.80;9.82;;;12.40;86.50;;;;;;5012234;28;20026;-78